Time;durP1;ratioP1;P1;durP2;ratioP2;P2;SDS_P1;SDS_P2;PMS_P1;PMS_P2;Temp;Humidity;BMP_temperature;BMP_pressure;BME280_temperature;BME280_humidity;BME280_pressure;Samples;Min_cycle;Max_cycle;Signal;HPM_P1;HPM_P2
2023/01/17 00:00:12;;;;;;;5.25;1.73;;;3.20;99.90;;;;;;5068025;28;20375;-87
2023/01/17 00:02:42;;;;;;;5.70;1.55;;;3.30;99.90;;;;;;5055959;28;20040;-88
2023/01/17 00:10:40;;;;;;;1.60;0.88;;;3.30;99.90;;;;;;5056292;28;20402;-85
2023/01/17 00:13:05;;;;;;;1.98;1.30;;;3.30;99.90;;;;;;5055395;28;20051;-85
2023/01/17 00:15:31;;;;;;;2.80;0.95;;;3.30;99.90;;;;;;5062960;28;20036;-86
2023/01/17 00:17:57;;;;;;;4.40;1.00;;;3.20;99.90;;;;;;5054200;28;21228;-84
2023/01/17 00:26:04;;;;;;;2.40;0.57;;;3.20;99.90;;;;;;5080994;28;20060;-85
2023/01/17 01:35:50;;;;;;;4.75;0.70;;;2.40;99.90;;;;;;5094111;28;20080;-86
2023/01/17 01:38:24;;;;;;;5.35;0.60;;;2.30;99.90;;;;;;5063284;28;20131;-85
2023/01/17 01:40:55;;;;;;;4.38;0.60;;;2.30;99.90;;;;;;5087551;28;20051;-85
2023/01/17 01:43:49;;;;;;;4.00;0.50;;;2.20;99.90;;;;;;5055473;28;20041;-86
2023/01/17 01:46:30;;;;;;;7.35;1.10;;;2.30;99.90;;;;;;5081273;28;20079;-85
2023/01/17 01:49:01;;;;;;;6.85;0.60;;;2.30;99.90;;;;;;5083448;28;20045;-85
2023/01/17 01:51:32;;;;;;;7.60;0.60;;;2.40;99.90;;;;;;5073269;28;20397;-85
2023/01/17 01:54:05;;;;;;;5.97;0.50;;;2.50;99.90;;;;;;5080041;28;20131;-85
2023/01/17 01:56:32;;;;;;;5.32;0.45;;;2.30;99.90;;;;;;5071267;28;20068;-85
2023/01/17 01:59:01;;;;;;;5.38;1.25;;;2.30;99.90;;;;;;5048462;28;20135;-85
2023/01/17 02:01:29;;;;;;;6.97;0.70;;;2.30;99.90;;;;;;5073135;28;20125;-85
2023/01/17 02:03:55;;;;;;;5.30;1.15;;;2.30;99.90;;;;;;5055514;28;20142;-85
2023/01/17 02:06:34;;;;;;;5.95;0.55;;;2.20;99.90;;;;;;5093023;28;20123;-84
2023/01/17 02:09:07;;;;;;;5.72;0.55;;;2.20;99.90;;;;;;5076211;28;20040;-85
2023/01/17 02:11:36;;;;;;;8.95;0.90;;;2.20;99.90;;;;;;5077106;28;20077;-85
2023/01/17 02:14:02;;;;;;;4.40;0.70;;;2.20;99.90;;;;;;5065824;28;20075;-84
2023/01/17 02:16:55;;;;;;;5.30;0.75;;;2.20;99.90;;;;;;5076300;28;20051;-85
2023/01/17 02:19:57;;;;;;;7.53;0.85;;;2.10;99.90;;;;;;5080038;28;20122;-85
2023/01/17 02:22:28;;;;;;;6.45;0.70;;;2.10;99.90;;;;;;5093059;28;20039;-85
2023/01/17 02:24:57;;;;;;;4.97;0.68;;;2.10;99.90;;;;;;5080801;28;20062;-85
2023/01/17 02:27:25;;;;;;;7.78;1.00;;;2.10;99.90;;;;;;5063732;28;20036;-84
2023/01/17 02:30:10;;;;;;;5.25;0.60;;;2.10;99.90;;;;;;5076251;28;20495;-85
2023/01/17 02:32:53;;;;;;;9.63;0.95;;;2.10;99.90;;;;;;5080677;28;20134;-84
2023/01/17 02:35:38;;;;;;;7.65;0.60;;;2.00;99.90;;;;;;5077797;28;20089;-85
2023/01/17 02:38:06;;;;;;;7.22;0.80;;;1.90;99.90;;;;;;5090725;28;20056;-84
2023/01/17 02:40:47;;;;;;;6.60;0.80;;;1.90;99.90;;;;;;5075632;28;20043;-86
2023/01/17 02:43:15;;;;;;;5.80;0.60;;;1.90;99.90;;;;;;5097453;28;20043;-87
2023/01/17 02:45:41;;;;;;;8.15;0.80;;;1.90;99.90;;;;;;5080833;28;20045;-85
2023/01/17 02:48:09;;;;;;;6.22;0.65;;;1.90;99.90;;;;;;5096561;28;20405;-85
2023/01/17 02:50:49;;;;;;;5.00;0.63;;;2.00;99.90;;;;;;5080996;28;20086;-85
2023/01/17 02:53:54;;;;;;;4.65;0.60;;;2.00;99.90;;;;;;5081780;28;20126;-85
2023/01/17 02:56:49;;;;;;;3.78;0.68;;;2.00;99.90;;;;;;5071204;28;20055;-85
2023/01/17 02:59:15;;;;;;;4.75;0.90;;;2.00;99.90;;;;;;5070047;28;20043;-87
2023/01/17 03:01:56;;;;;;;9.93;0.90;;;2.10;99.90;;;;;;5092813;28;20051;-86
2023/01/17 03:04:39;;;;;;;9.02;0.85;;;2.00;99.90;;;;;;5101798;28;20059;-85
2023/01/17 03:07:10;;;;;;;9.95;1.38;;;2.10;99.90;;;;;;5071761;28;20473;-87
2023/01/17 03:09:37;;;;;;;6.15;0.73;;;2.10;99.90;;;;;;5073890;28;20668;-85
2023/01/17 03:12:04;;;;;;;4.93;0.70;;;2.10;99.90;;;;;;5077016;28;20050;-84
2023/01/17 03:14:32;;;;;;;8.38;0.80;;;2.10;99.90;;;;;;5073803;28;20481;-85
2023/01/17 03:17:04;;;;;;;12.55;1.00;;;2.10;99.90;;;;;;5060565;28;20055;-85
2023/01/17 03:19:45;;;;;;;;;;;;;;;;;;;;;
2023/01/17 03:22:11;;;;;;;7.07;1.00;;;2.20;99.90;;;;;;5078087;28;20052;-84
2023/01/17 03:24:40;;;;;;;8.18;0.80;;;2.20;99.90;;;;;;5071275;28;20388;-84
2023/01/17 03:27:06;;;;;;;7.43;1.35;;;2.10;99.90;;;;;;5066731;28;20039;-85
2023/01/17 03:29:34;;;;;;;7.85;0.85;;;2.10;99.90;;;;;;5061582;28;20070;-85
2023/01/17 03:32:12;;;;;;;10.10;1.67;;;2.10;99.90;;;;;;5075277;28;20043;-84
2023/01/17 03:34:37;;;;;;;10.50;1.65;;;2.10;99.90;;;;;;5067796;28;20071;-86
2023/01/17 03:37:05;;;;;;;3.78;1.02;;;2.20;99.90;;;;;;5058776;28;20086;-85
2023/01/17 03:39:42;;;;;;;7.85;0.77;;;2.00;99.90;;;;;;5071180;28;20059;-86
2023/01/17 03:42:15;;;;;;;7.35;1.35;;;2.00;99.90;;;;;;5072695;28;20485;-85
2023/01/17 03:44:43;;;;;;;13.73;1.20;;;2.10;99.90;;;;;;5069951;28;20051;-86
2023/01/17 03:47:14;;;;;;;9.75;0.70;;;2.00;99.90;;;;;;5077686;28;20052;-85
2023/01/17 03:49:45;;;;;;;5.70;0.80;;;2.00;99.90;;;;;;5093980;28;20054;-87
2023/01/17 03:52:16;;;;;;;7.13;1.00;;;2.00;99.90;;;;;;5059467;28;20388;-87
2023/01/17 03:54:54;;;;;;;;;;;;;;;;;;;;;
2023/01/17 03:57:20;;;;;;;4.80;1.15;;;1.90;99.90;;;;;;5084170;28;20066;-86
2023/01/17 03:59:47;;;;;;;10.98;1.05;;;1.80;99.90;;;;;;5047588;28;20051;-85
2023/01/17 04:02:13;;;;;;;21.67;2.10;;;1.90;99.90;;;;;;5074541;28;20427;-85
2023/01/17 04:05:26;;;;;;;8.85;0.88;;;1.90;99.90;;;;;;5091120;28;20066;-88
2023/01/17 04:08:05;;;;;;;10.85;2.33;;;1.80;99.90;;;;;;5081062;28;20048;-85
2023/01/17 04:10:43;;;;;;;4.82;0.65;;;1.90;99.90;;;;;;5066213;28;20035;-86
2023/01/17 04:13:15;;;;;;;10.15;1.02;;;1.80;99.90;;;;;;5075641;28;20075;-85
2023/01/17 04:16:09;;;;;;;6.40;1.27;;;1.80;99.90;;;;;;5096902;28;20047;-86
2023/01/17 04:18:37;;;;;;;6.57;0.80;;;1.70;99.90;;;;;;5095765;28;20073;-85
2023/01/17 04:21:06;;;;;;;6.47;1.17;;;1.60;99.90;;;;;;5066087;28;20075;-87
2023/01/17 04:23:38;;;;;;;8.27;1.25;;;1.50;99.90;;;;;;5090976;28;20048;-85
2023/01/17 04:26:11;;;;;;;8.55;1.02;;;1.40;99.90;;;;;;5074840;28;20063;-85
2023/01/17 04:28:44;;;;;;;12.27;0.80;;;1.50;99.90;;;;;;5089934;28;20128;-85
2023/01/17 04:31:15;;;;;;;5.15;0.63;;;1.40;99.90;;;;;;5092144;28;20039;-85
2023/01/17 04:33:43;;;;;;;10.60;1.08;;;1.30;99.90;;;;;;5089086;28;20044;-85
2023/01/17 04:36:11;;;;;;;7.82;1.02;;;1.30;99.90;;;;;;5081900;28;20089;-84
2023/01/17 04:38:37;;;;;;;10.95;1.60;;;1.30;99.90;;;;;;5068180;28;20039;-84
2023/01/17 04:41:03;;;;;;;9.77;1.27;;;1.20;99.90;;;;;;5077726;28;20043;-85
2023/01/17 04:43:33;;;;;;;7.35;1.10;;;1.10;99.90;;;;;;5066373;28;20036;-85
2023/01/17 04:46:09;;;;;;;10.68;1.35;;;1.30;99.90;;;;;;5075065;28;20052;-89
2023/01/17 04:48:35;;;;;;;8.05;0.80;;;1.10;99.90;;;;;;5056169;28;20044;-86
2023/01/17 04:51:06;;;;;;;12.00;1.25;;;1.20;99.90;;;;;;5077886;28;20051;-90
2023/01/17 04:53:34;;;;;;;9.15;0.95;;;1.10;99.90;;;;;;5059014;28;20042;-85
2023/01/17 04:56:03;;;;;;;8.27;1.38;;;1.10;99.90;;;;;;5065381;28;20078;-94
2023/01/17 04:58:29;;;;;;;8.55;1.08;;;1.00;99.90;;;;;;5074720;28;20636;-85
2023/01/17 05:00:55;;;;;;;7.20;1.00;;;1.00;99.90;;;;;;5074738;28;20044;-84
2023/01/17 05:03:24;;;;;;;11.05;1.42;;;1.00;99.90;;;;;;5054587;28;20419;-85
2023/01/17 05:05:53;;;;;;;8.13;0.98;;;0.90;99.90;;;;;;5082774;28;20056;-85
2023/01/17 05:08:34;;;;;;;8.57;1.00;;;0.90;99.90;;;;;;5072544;28;20130;-85
2023/01/17 05:11:05;;;;;;;8.15;0.88;;;0.80;99.90;;;;;;5059479;28;20051;-85
2023/01/17 05:13:33;;;;;;;8.25;1.00;;;0.70;99.90;;;;;;5061003;28;20032;-85
2023/01/17 05:19:20;;;;;;;9.65;1.30;;;0.70;99.90;;;;;;5075471;28;20120;-84
2023/01/17 05:21:46;;;;;;;6.25;0.65;;;0.70;99.90;;;;;;5095276;28;20557;-84
2023/01/17 05:24:12;;;;;;;12.13;0.98;;;0.60;99.90;;;;;;5061823;28;20077;-84
2023/01/17 05:26:45;;;;;;;5.10;0.77;;;0.60;99.90;;;;;;5062020;28;20134;-84
2023/01/17 05:29:14;;;;;;;6.63;0.80;;;0.60;99.90;;;;;;5060176;28;20470;-85
2023/01/17 05:31:54;;;;;;;4.97;0.63;;;0.50;99.90;;;;;;5075135;28;20130;-85
2023/01/17 05:34:25;;;;;;;9.15;0.95;;;0.40;99.90;;;;;;5075302;28;20073;-86
2023/01/17 05:37:12;;;;;;;6.78;0.73;;;0.40;99.90;;;;;;5049073;28;20048;-88
2023/01/17 05:40:06;;;;;;;14.38;1.23;;;0.30;99.90;;;;;;5073262;28;20043;-87
2023/01/17 05:42:47;;;;;;;;;;;;;;;;;;;;;
2023/01/17 05:45:15;;;;;;;6.47;0.95;;;0.20;99.90;;;;;;5094614;28;20043;-88
2023/01/17 05:47:59;;;;;;;1.67;0.50;;;0.20;99.90;;;;;;5087511;28;20086;-89
2023/01/17 05:50:41;;;;;;;3.90;0.50;;;0.10;99.90;;;;;;5094337;28;20093;-87
2023/01/17 05:53:15;;;;;;;2.97;0.40;;;0.00;99.90;;;;;;5065430;28;20058;-90
2023/01/17 05:55:41;;;;;;;8.25;0.70;;;0.10;99.90;;;;;;5094020;28;20055;-81
2023/01/17 05:58:30;;;;;;;5.30;0.50;;;0.00;99.90;;;;;;5090371;28;20031;-89
2023/01/17 06:01:05;;;;;;;5.50;0.40;;;-0.20;99.90;;;;;;5073203;28;20252;-87
2023/01/17 06:03:45;;;;;;;6.22;0.70;;;-0.10;99.90;;;;;;5062852;28;20231;-86
2023/01/17 06:06:14;;;;;;;3.55;0.55;;;-0.20;99.90;;;;;;5070328;28;20063;-93
2023/01/17 06:08:40;;;;;;;4.78;0.40;;;-0.20;99.90;;;;;;5094028;28;20047;-87
2023/01/17 06:11:21;;;;;;;;;;;;;;;;;;;;;
2023/01/17 06:13:48;;;;;;;4.03;0.65;;;-0.30;99.90;;;;;;5082573;28;20052;-87
2023/01/17 06:16:32;;;;;;;5.53;0.90;;;-0.20;99.90;;;;;;5074093;28;20054;-91
2023/01/17 06:19:08;;;;;;;4.47;0.93;;;-0.30;99.90;;;;;;5094618;28;20048;-87
2023/01/17 06:21:33;;;;;;;;;;;-0.30;99.90;;;;;;5082610;28;20153;-87
2023/01/17 06:23:59;;;;;;;8.53;1.77;;;-0.30;99.90;;;;;;5075369;28;20006;-81
2023/01/17 06:26:25;;;;;;;5.20;0.77;;;-0.30;99.90;;;;;;5061468;28;20485;-82
2023/01/17 06:28:50;;;;;;;7.68;0.98;;;-0.20;99.90;;;;;;5095741;28;20520;-81
2023/01/17 06:31:17;;;;;;;6.68;0.77;;;-0.10;99.90;;;;;;5061863;28;20436;-85
2023/01/17 06:33:42;;;;;;;7.75;0.70;;;-0.20;99.90;;;;;;5049231;28;20044;-80
2023/01/17 06:36:08;;;;;;;6.07;0.93;;;-0.20;99.90;;;;;;5059618;28;20433;-80
2023/01/17 06:38:34;;;;;;;6.97;0.60;;;-0.20;99.90;;;;;;5094969;28;20354;-82
2023/01/17 06:41:03;;;;;;;7.22;0.70;;;-0.20;99.90;;;;;;5065256;28;20171;-80
2023/01/17 06:43:32;;;;;;;5.88;1.00;;;-0.20;99.90;;;;;;5096669;28;20042;-80
2023/01/17 06:45:58;;;;;;;6.28;0.60;;;0.00;99.90;;;;;;5043691;28;20504;-79
2023/01/17 06:48:24;;;;;;;5.88;0.60;;;-0.10;99.90;;;;;;5061244;28;20047;-87
2023/01/17 06:50:50;;;;;;;7.43;0.90;;;0.00;99.90;;;;;;5071850;28;20047;-86
2023/01/17 06:53:15;;;;;;;7.25;0.80;;;-0.10;99.90;;;;;;5090395;28;20078;-87
2023/01/17 06:55:42;;;;;;;7.05;1.42;;;-0.10;99.90;;;;;;5080022;28;20043;-89
2023/01/17 06:58:11;;;;;;;7.38;0.82;;;-0.10;99.90;;;;;;5046423;28;20048;-87
2023/01/17 07:00:37;;;;;;;5.35;0.93;;;-0.10;99.90;;;;;;5073754;28;20501;-87
2023/01/17 07:03:19;;;;;;;4.38;0.70;;;-0.10;99.90;;;;;;5076733;28;20050;-87
2023/01/17 07:05:47;;;;;;;8.27;0.70;;;-0.10;99.90;;;;;;5056085;28;20067;-87
2023/01/17 07:08:39;;;;;;;6.25;0.80;;;-0.20;99.90;;;;;;5073228;28;20063;-88
2023/01/17 07:11:14;;;;;;;4.93;0.93;;;-0.20;99.90;;;;;;5071297;28;20058;-90
2023/01/17 07:13:53;;;;;;;;;;;;;;;;;;;;;
2023/01/17 07:16:49;;;;;;;;;;;;;;;;;;;;;
2023/01/17 07:19:29;;;;;;;4.10;0.83;;;-0.20;99.90;;;;;;5061428;28;20052;-88
2023/01/17 07:22:07;;;;;;;8.82;1.35;;;-0.20;99.90;;;;;;5081488;28;20309;-88
2023/01/17 07:24:57;;;;;;;4.18;0.70;;;-0.20;99.90;;;;;;5057960;28;20634;-88
2023/01/17 07:27:56;;;;;;;;;;;;;;;;;;;;;
2023/01/17 07:30:29;;;;;;;7.22;0.60;;;-0.20;99.90;;;;;;5086602;28;20040;-88
2023/01/17 07:33:31;;;;;;;8.70;0.90;;;-0.30;99.90;;;;;;5057714;28;20072;-89
2023/01/17 07:36:17;;;;;;;5.43;0.90;;;-0.30;99.90;;;;;;5089198;28;20370;-89
2023/01/17 07:38:56;;;;;;;5.10;0.98;;;-0.30;99.90;;;;;;5042383;28;20708;-91
2023/01/17 07:42:07;;;;;;;;;;;;;;;;;;;;;
2023/01/17 07:47:50;;;;;;;9.27;0.85;;;0.00;99.90;;;;;;5092374;28;20052;-89
2023/01/17 07:50:49;;;;;;;4.43;0.50;;;0.10;99.90;;;;;;5078496;28;20123;-91
2023/01/17 07:54:07;;;;;;;7.20;0.77;;;0.10;99.90;;;;;;5053611;28;20036;-90
2023/01/17 07:57:11;;;;;;;4.75;0.90;;;0.20;99.90;;;;;;5069654;28;20481;-92
2023/01/17 08:00:25;;;;;;;4.53;1.10;;;0.10;99.90;;;;;;5059885;28;20052;-89
2023/01/17 08:03:38;;;;;;;9.07;1.13;;;0.00;99.90;;;;;;5059751;28;20058;-89
2023/01/17 08:06:55;;;;;;;4.00;0.63;;;0.00;99.90;;;;;;5085552;28;20067;-91
2023/01/17 08:09:48;;;;;;;;;;;;;;;;;;;;;
2023/01/17 08:13:11;;;;;;;3.13;0.80;;;0.10;99.90;;;;;;5085669;28;20040;-89
2023/01/17 08:16:31;;;;;;;;;;;;;;;;;;;;;
2023/01/17 08:28:48;;;;;;;;;;;;;;;;;;;;;
2023/01/17 08:31:26;;;;;;;;;;;;;;;;;;;;;
2023/01/17 08:34:14;;;;;;;9.52;1.33;;;0.10;99.90;;;;;;5051263;28;20052;-88
2023/01/17 08:37:03;;;;;;;7.55;1.20;;;0.20;99.90;;;;;;5030689;28;20117;-89
2023/01/17 08:40:15;;;;;;;9.68;1.40;;;0.20;99.90;;;;;;5070073;28;20040;-93
2023/01/17 08:43:19;;;;;;;6.60;1.40;;;0.20;99.90;;;;;;5071253;28;20131;-89
2023/01/17 08:46:49;;;;;;;7.40;1.20;;;0.20;99.90;;;;;;5056460;28;20055;-88
2023/01/17 08:49:59;;;;;;;;;;;;;;;;;;;;;
2023/01/17 08:52:56;;;;;;;4.80;1.20;;;0.20;99.90;;;;;;5060886;28;20044;-88
2023/01/17 08:56:24;;;;;;;5.75;1.02;;;0.20;99.90;;;;;;5057130;28;20055;-88
2023/01/17 08:59:08;;;;;;;;;;;;;;;;;;;;;
2023/01/17 09:01:49;;;;;;;8.20;1.55;;;0.20;99.90;;;;;;5081132;28;20060;-89
2023/01/17 09:04:30;;;;;;;6.90;1.70;;;0.30;99.90;;;;;;5081959;28;20048;-88
2023/01/17 09:07:28;;;;;;;;;;;;;;;;;;;;;
2023/01/17 09:10:26;;;;;;;8.63;1.50;;;0.20;99.90;;;;;;5080249;28;20118;-88
2023/01/17 09:16:21;;;;;;;4.95;0.80;;;0.20;99.90;;;;;;5089426;28;20044;-88
2023/01/17 09:19:20;;;;;;;;;;;;;;;;;;;;;
2023/01/17 09:22:14;;;;;;;;;;;;;;;;;;;;;
2023/01/17 09:25:25;;;;;;;;;;;;;;;;;;;;;
2023/01/17 09:35:19;;;;;;;;;;;;;;;;;;;;;
2023/01/17 09:38:56;;;;;;;11.40;2.28;;;0.60;99.90;;;;;;5078979;28;20069;-87
2023/01/17 09:42:01;;;;;;;3.30;1.38;;;0.70;99.90;;;;;;5092786;28;20290;-87
2023/01/17 09:44:55;;;;;;;7.22;1.48;;;0.80;99.90;;;;;;5064778;28;20048;-87
2023/01/17 09:47:57;;;;;;;6.63;1.20;;;0.80;99.90;;;;;;5077078;28;20434;-90
2023/01/17 09:54:36;;;;;;;2.95;1.10;;;0.90;99.90;;;;;;5033572;28;20079;-88
2023/01/17 10:00:52;;;;;;;5.30;1.40;;;1.20;99.90;;;;;;5076221;28;20051;-89
2023/01/17 10:04:07;;;;;;;7.72;1.50;;;1.10;99.90;;;;;;5077608;28;20140;-88
2023/01/17 10:07:07;;;;;;;9.68;1.75;;;1.10;99.90;;;;;;5059979;28;20048;-89
2023/01/17 10:13:54;;;;;;;;;;;;;;;;;;;;;
2023/01/17 10:20:24;;;;;;;;;;;;;;;;;;;;;
2023/01/17 10:23:35;;;;;;;2.65;1.33;;;1.50;99.90;;;;;;5075314;28;20048;-89
2023/01/17 10:26:21;;;;;;;9.65;1.20;;;1.50;99.90;;;;;;5045718;28;20060;-88
2023/01/17 10:29:29;;;;;;;5.15;1.35;;;1.50;99.90;;;;;;5066716;28;20052;-88
2023/01/17 10:32:31;;;;;;;6.95;1.10;;;1.60;99.90;;;;;;5060086;28;20048;-88
2023/01/17 10:35:10;;;;;;;8.52;1.70;;;1.70;99.90;;;;;;5053604;28;20060;-88
2023/01/17 10:38:27;;;;;;;5.07;2.08;;;1.80;99.90;;;;;;5031267;28;20042;-87
2023/01/17 10:44:59;;;;;;;;;;;;;;;;;;;;;
2023/01/17 10:47:38;;;;;;;5.00;1.42;;;1.80;99.90;;;;;;5044505;28;20087;-87
2023/01/17 10:50:27;;;;;;;3.33;0.85;;;1.90;99.90;;;;;;5063580;28;20050;-87
2023/01/17 10:53:27;;;;;;;6.45;1.80;;;2.00;99.90;;;;;;5043159;28;20131;-87
2023/01/17 10:55:56;;;;;;;5.03;1.02;;;1.90;99.90;;;;;;5037288;28;20049;-87
2023/01/17 10:58:27;;;;;;;6.00;1.23;;;1.90;99.90;;;;;;5054711;28;20125;-86
2023/01/17 11:01:02;;;;;;;5.30;1.55;;;2.10;99.90;;;;;;5059474;28;20050;-89
2023/01/17 11:03:32;;;;;;;6.35;1.40;;;2.00;99.90;;;;;;5063076;28;20044;-86
2023/01/17 11:06:18;;;;;;;7.28;1.23;;;2.10;99.90;;;;;;5049467;28;20494;-86
2023/01/17 11:08:52;;;;;;;;;;;2.10;99.90;;;;;;5076743;28;20079;-86
2023/01/17 11:11:32;;;;;;;;;;;;;;;;;;;;;
2023/01/17 11:14:28;;;;;;;2.75;0.85;;;2.10;99.90;;;;;;5077349;28;20466;-87
2023/01/17 11:17:15;;;;;;;;;;;;;;;;;;;;;
2023/01/17 11:19:50;;;;;;;5.13;1.00;;;2.30;99.90;;;;;;5061686;28;20059;-86
2023/01/17 11:22:28;;;;;;;2.53;0.90;;;2.10;99.90;;;;;;5050558;28;20136;-87
2023/01/17 11:24:58;;;;;;;7.90;1.88;;;2.20;99.90;;;;;;5058804;28;20052;-89
2023/01/17 11:27:26;;;;;;;10.10;1.20;;;2.30;99.90;;;;;;5077567;28;20119;-85
2023/01/17 11:30:17;;;;;;;5.60;0.95;;;2.40;99.90;;;;;;5060096;28;20485;-84
2023/01/17 11:33:05;;;;;;;3.53;0.70;;;2.40;99.90;;;;;;5060721;28;20052;-84
2023/01/17 11:35:48;;;;;;;4.18;0.85;;;2.50;99.90;;;;;;5066356;28;20045;-85
2023/01/17 11:38:21;;;;;;;2.55;0.90;;;2.60;99.90;;;;;;5056760;28;20036;-85
2023/01/17 11:40:52;;;;;;;5.45;1.00;;;2.70;99.90;;;;;;5054620;28;20048;-86
2023/01/17 11:43:27;;;;;;;3.22;0.70;;;2.70;99.90;;;;;;5075360;28;20477;-86
2023/01/17 11:46:16;;;;;;;9.75;2.47;;;2.80;99.90;;;;;;5056247;28;20075;-85
2023/01/17 11:48:52;;;;;;;5.50;1.30;;;2.80;99.90;;;;;;5070820;28;20098;-86
2023/01/17 11:51:40;;;;;;;3.35;0.70;;;2.80;99.90;;;;;;5060556;28;20048;-86
2023/01/17 11:54:37;;;;;;;4.50;0.98;;;2.80;99.90;;;;;;5059761;28;20050;-86
2023/01/17 11:57:04;;;;;;;6.03;0.80;;;2.90;99.90;;;;;;5076861;28;20478;-85
2023/01/17 11:59:54;;;;;;;;;;;;;;;;;;;;;
2023/01/17 12:02:31;;;;;;;4.80;0.90;;;3.00;99.90;;;;;;5059223;28;20055;-85
2023/01/17 12:05:27;;;;;;;6.13;1.05;;;2.80;99.90;;;;;;5055630;28;20063;-85
2023/01/17 12:08:17;;;;;;;4.03;0.90;;;2.80;99.90;;;;;;5075375;28;20052;-85
2023/01/17 12:11:15;;;;;;;2.80;0.80;;;2.80;99.90;;;;;;5064749;28;20094;-87
2023/01/17 12:14:25;;;;;;;4.63;0.75;;;2.90;99.90;;;;;;5059423;28;20047;-86
2023/01/17 12:17:19;;;;;;;3.88;0.75;;;3.00;99.90;;;;;;5059185;28;20101;-86
2023/01/17 12:20:23;;;;;;;6.85;1.23;;;3.00;99.90;;;;;;5043589;28;20044;-86
2023/01/17 12:22:55;;;;;;;3.97;1.30;;;3.10;99.90;;;;;;5044837;28;20092;-86
2023/01/17 12:25:23;;;;;;;3.30;0.90;;;3.10;99.90;;;;;;5059369;28;20134;-86
2023/01/17 12:28:10;;;;;;;5.75;0.90;;;3.20;99.90;;;;;;5089944;28;20140;-85
2023/01/17 12:31:10;;;;;;;6.80;1.27;;;3.30;99.90;;;;;;5064497;28;20052;-86
2023/01/17 12:34:15;;;;;;;5.85;1.00;;;3.30;99.90;;;;;;5049791;28;20048;-86
2023/01/17 12:37:04;;;;;;;3.03;0.90;;;3.40;99.90;;;;;;5073814;28;20044;-87
2023/01/17 12:39:39;;;;;;;3.47;0.88;;;3.70;99.90;;;;;;5058458;28;20052;-86
2023/01/17 12:42:21;;;;;;;4.43;0.80;;;3.80;99.90;;;;;;5059350;28;20435;-89
2023/01/17 12:45:07;;;;;;;3.00;0.68;;;3.80;99.90;;;;;;5052785;28;20091;-86
2023/01/17 12:47:38;;;;;;;3.17;0.50;;;3.80;99.90;;;;;;5038749;28;20045;-85
2023/01/17 12:50:19;;;;;;;2.20;0.65;;;3.70;99.90;;;;;;5068618;28;20044;-87
2023/01/17 12:52:59;;;;;;;3.85;0.98;;;3.60;99.90;;;;;;5059259;28;20044;-86
2023/01/17 12:55:40;;;;;;;4.53;0.52;;;3.50;99.90;;;;;;5044496;28;20048;-86
2023/01/17 12:58:15;;;;;;;5.78;0.43;;;3.30;99.90;;;;;;5050837;28;20090;-85
2023/01/17 13:01:05;;;;;;;3.67;1.23;;;3.20;99.90;;;;;;5055662;28;20088;-85
2023/01/17 13:03:59;;;;;;;0.88;0.50;;;3.20;99.90;;;;;;5022858;28;20083;-86
2023/01/17 13:06:43;;;;;;;2.97;0.70;;;3.20;99.90;;;;;;5057696;28;20391;-86
2023/01/17 13:09:33;;;;;;;4.10;1.08;;;3.10;99.90;;;;;;5057441;28;20048;-89
2023/01/17 13:12:07;;;;;;;3.30;0.52;;;3.20;99.90;;;;;;5056543;28;20048;-86
2023/01/17 13:14:41;;;;;;;3.60;0.50;;;3.30;99.90;;;;;;5057440;28;20044;-90
2023/01/17 13:17:31;;;;;;;0.82;0.50;;;3.40;99.90;;;;;;5050378;28;20048;-85
2023/01/17 13:20:21;;;;;;;2.30;0.40;;;3.50;99.90;;;;;;5043379;28;20048;-86
2023/01/17 13:22:53;;;;;;;4.30;0.65;;;3.70;99.90;;;;;;5056419;28;20048;-88
2023/01/17 13:25:40;;;;;;;5.05;0.70;;;3.90;99.90;;;;;;5060743;28;20059;-85
2023/01/17 13:28:40;;;;;;;3.53;0.50;;;4.00;99.90;;;;;;5056428;28;20135;-85
2023/01/17 13:31:20;;;;;;;3.35;0.63;;;4.00;99.90;;;;;;5058209;28;20109;-85
2023/01/17 13:34:45;;;;;;;3.17;0.50;;;4.10;99.90;;;;;;5047029;28;20036;-86
2023/01/17 13:37:21;;;;;;;3.60;0.40;;;4.00;99.90;;;;;;5048383;28;20075;-86
2023/01/17 13:40:05;;;;;;;5.23;0.50;;;3.90;99.90;;;;;;5038676;28;20048;-87
2023/01/17 13:42:54;;;;;;;1.85;0.52;;;3.70;99.90;;;;;;5054947;28;20080;-87
2023/01/17 13:45:49;;;;;;;3.63;0.50;;;3.60;99.90;;;;;;5071147;28;20051;-87
2023/01/17 13:48:18;;;;;;;6.60;0.80;;;3.60;99.90;;;;;;5026303;28;20452;-86
2023/01/17 13:51:18;;;;;;;3.15;0.88;;;3.50;99.90;;;;;;5051540;28;20049;-87
2023/01/17 13:54:16;;;;;;;;;;;;;;;;;;;;;
2023/01/17 13:56:42;;;;;;;;;;;;;;;;;;;;;
2023/01/17 13:59:29;;;;;;;5.75;0.90;;;3.50;99.90;;;;;;5055841;28;20045;-86
2023/01/17 14:01:57;;;;;;;3.28;0.90;;;3.50;99.90;;;;;;5041776;28;20447;-86
2023/01/17 14:05:06;;;;;;;1.67;0.52;;;3.60;99.90;;;;;;5058631;28;20134;-87
2023/01/17 14:07:40;;;;;;;4.50;0.60;;;3.70;99.90;;;;;;5056964;28;20060;-87
2023/01/17 14:10:27;;;;;;;1.35;0.40;;;3.80;99.90;;;;;;5042430;28;20037;-88
2023/01/17 14:12:56;;;;;;;2.00;0.32;;;3.80;99.90;;;;;;5042023;28;20072;-87
2023/01/17 14:15:25;;;;;;;5.97;0.60;;;3.70;99.90;;;;;;5022931;28;20049;-86
2023/01/17 14:18:02;;;;;;;2.22;0.50;;;3.60;99.90;;;;;;5042318;28;20052;-87
2023/01/17 14:20:38;;;;;;;3.65;0.50;;;3.40;99.90;;;;;;5041849;28;20053;-86
2023/01/17 14:23:28;;;;;;;;;;;3.40;99.90;;;;;;5042333;28;20051;-87
2023/01/17 14:25:59;;;;;;;2.97;0.75;;;3.20;99.90;;;;;;5073039;28;19924;-86
2023/01/17 14:28:32;;;;;;;1.65;0.40;;;3.20;99.90;;;;;;5054114;28;20052;-87
2023/01/17 14:31:02;;;;;;;2.50;0.50;;;3.10;99.90;;;;;;5036520;28;20097;-84
2023/01/17 14:33:38;;;;;;;1.13;0.32;;;3.10;99.90;;;;;;5040976;28;20431;-86
2023/01/17 14:36:07;;;;;;;3.83;0.40;;;3.10;99.90;;;;;;5039464;28;20053;-87
2023/01/17 14:38:50;;;;;;;0.93;0.35;;;3.00;99.90;;;;;;5046676;28;20203;-85
2023/01/17 14:41:26;;;;;;;1.80;0.50;;;3.10;99.90;;;;;;5057553;28;20036;-84
2023/01/17 14:43:58;;;;;;;5.35;1.20;;;3.10;99.90;;;;;;5057600;28;20040;-86
2023/01/17 14:46:38;;;;;;;3.92;0.80;;;3.00;99.90;;;;;;5058257;28;20821;-88
2023/01/17 14:49:19;;;;;;;3.70;0.80;;;2.90;99.90;;;;;;5041455;28;20056;-86
2023/01/17 14:52:11;;;;;;;;;;;;;;;;;;;;;
2023/01/17 14:55:03;;;;;;;3.00;0.70;;;2.80;99.90;;;;;;5058094;28;20146;-87
2023/01/17 14:57:29;;;;;;;2.13;0.55;;;2.80;99.90;;;;;;5032394;28;20475;-86
2023/01/17 15:00:15;;;;;;;3.53;0.50;;;2.80;99.90;;;;;;5057285;28;20120;-87
2023/01/17 15:02:43;;;;;;;3.35;0.60;;;2.80;99.90;;;;;;5057381;28;20464;-86
2023/01/17 15:05:17;;;;;;;5.63;0.82;;;2.80;99.90;;;;;;5051431;28;20045;-86
2023/01/17 15:07:47;;;;;;;2.90;1.02;;;2.80;99.90;;;;;;5057625;28;20485;-86
2023/01/17 15:10:21;;;;;;;3.85;1.55;;;2.80;99.90;;;;;;5043252;28;20044;-86
2023/01/17 15:12:53;;;;;;;2.30;1.40;;;2.90;99.90;;;;;;5066737;28;20086;-88
2023/01/17 15:15:29;;;;;;;4.13;2.30;;;2.90;99.90;;;;;;5076295;28;20135;-86
2023/01/17 15:18:13;;;;;;;;;;;2.70;99.90;;;;;;5058281;28;20056;-87
2023/01/17 15:20:47;;;;;;;7.63;1.98;;;2.70;99.90;;;;;;5060318;28;20397;-86
2023/01/17 15:23:22;;;;;;;4.38;1.50;;;2.80;99.90;;;;;;5077475;28;20050;-87
2023/01/17 15:25:50;;;;;;;3.33;1.02;;;2.70;99.90;;;;;;5076902;28;20044;-86
2023/01/17 15:28:26;;;;;;;5.70;1.60;;;2.80;99.90;;;;;;5077601;28;20055;-86
2023/01/17 15:31:01;;;;;;;5.22;1.65;;;2.60;99.90;;;;;;5077217;28;20536;-86
2023/01/17 15:33:30;;;;;;;4.63;1.85;;;2.60;99.90;;;;;;5060624;28;20194;-85
2023/01/17 15:36:07;;;;;;;6.40;1.75;;;2.50;99.90;;;;;;5044550;28;20052;-86
2023/01/17 15:38:38;;;;;;;4.07;1.63;;;2.30;99.90;;;;;;5057125;28;20048;-86
2023/01/17 15:41:10;;;;;;;4.05;1.52;;;2.30;99.90;;;;;;5056750;28;20040;-86
2023/01/17 15:43:40;;;;;;;3.97;1.77;;;2.10;99.90;;;;;;5059741;28;20053;-86
2023/01/17 15:46:18;;;;;;;7.07;2.63;;;2.10;99.90;;;;;;5044022;28;20047;-87
2023/01/17 15:48:47;;;;;;;7.50;2.13;;;2.00;99.90;;;;;;5046483;28;20505;-87
2023/01/17 15:51:13;;;;;;;6.80;2.15;;;1.90;99.90;;;;;;5044182;28;20040;-87
2023/01/17 15:53:41;;;;;;;4.28;2.30;;;1.80;99.90;;;;;;5056563;28;20437;-87
2023/01/17 15:56:32;;;;;;;3.75;1.95;;;1.70;99.90;;;;;;5047886;28;20044;-86
2023/01/17 15:59:29;;;;;;;5.32;2.25;;;1.70;99.90;;;;;;5057615;28;20489;-83
2023/01/17 16:02:41;;;;;;;13.80;3.10;;;1.60;99.90;;;;;;5074427;28;20044;-84
2023/01/17 16:05:22;;;;;;;8.63;3.05;;;1.60;99.90;;;;;;5027794;28;20600;-87
2023/01/17 16:07:52;;;;;;;7.25;3.55;;;1.50;99.90;;;;;;5056418;28;20095;-83
2023/01/17 16:10:27;;;;;;;3.72;2.30;;;1.50;99.90;;;;;;5058729;28;20450;-83
2023/01/17 16:12:56;;;;;;;4.65;2.08;;;1.40;99.90;;;;;;5074154;28;20130;-84
2023/01/17 16:15:24;;;;;;;7.97;2.35;;;1.30;99.90;;;;;;5044883;28;20131;-86
2023/01/17 16:18:06;;;;;;;6.28;3.17;;;1.30;99.90;;;;;;5051751;28;20049;-84
2023/01/17 16:20:38;;;;;;;4.38;2.00;;;1.20;99.90;;;;;;5060961;28;20043;-84
2023/01/17 16:23:04;;;;;;;5.90;2.30;;;1.20;99.90;;;;;;5053078;28;20485;-85
2023/01/17 16:25:31;;;;;;;7.75;2.20;;;1.30;99.90;;;;;;5034912;28;20086;-83
2023/01/17 16:28:01;;;;;;;8.40;2.47;;;1.10;99.90;;;;;;5058444;28;20124;-83
2023/01/17 16:30:47;;;;;;;7.88;2.67;;;0.90;99.90;;;;;;5016790;28;20158;-83
2023/01/17 16:33:13;;;;;;;5.45;2.17;;;0.80;99.90;;;;;;5050347;28;20427;-84
2023/01/17 16:35:41;;;;;;;6.20;2.50;;;0.70;99.90;;;;;;5055416;28;20505;-85
2023/01/17 16:38:14;;;;;;;5.93;2.47;;;0.60;99.90;;;;;;5056123;28;20067;-84
2023/01/17 16:40:44;;;;;;;4.32;1.90;;;0.60;99.90;;;;;;5074238;28;20126;-90